VVDN/DAD METAR and TAF weather

Enter ICAO airport designator
Station Type Date Time Source
VVDN METAR 2020/11/25 22:30 UTC NOAA

VVDN 252230Z 07003KT 8000 SCT013 26/23 Q1015 NOSIG


Station Type Date Time Source
VVDN Decoded METAR 2020/11/25 22:30 UTC NOAA

Da Nang, Vietnam (VVDN) 16-02N 108-11E 7M
Nov 25, 2020 - 05:30 PM EST / 2020.11.25 2230 UTC
Wind: from the ENE (070 degrees) at 3 MPH (3 KT):0
Visibility: 4 mile(s):0
Sky conditions: partly cloudy
Temperature: 78 F (26 C)
Dew Point: 73 F (23 C)
Relative Humidity: 83%
Pressure (altimeter): 29.97 in. Hg (1015 hPa)
ob: VVDN 252230Z 07003KT 8000 SCT013 26/23 Q1015 NOSIG
cycle: 22

Station Type Date Time Source
VVDN TAF 2020/11/25 18:36 UTC NOAA

TAF VVDN 251700Z 2518/2618 32006KT 8000 SCT013 SCT060
TEMPO 2518/2601 4000 RA

Example: see airport list